Time;durP1;ratioP1;P1;durP2;ratioP2;P2;SDS_P1;SDS_P2;PMS_P1;PMS_P2;Temp;Humidity;BMP_temperature;BMP_pressure;BME280_temperature;BME280_humidity;BME280_pressure;Samples;Min_cycle;Max_cycle;Signal;HPM_P1;HPM_P2
2023/02/14 00:00:36;;;;;;;14.65;9.20;;;;;;;;;;5076215;28;20031;-57
2023/02/14 00:03:01;;;;;;;12.35;8.77;;;;;;;;;;5074239;28;20037;-57
2023/02/14 00:05:26;;;;;;;15.05;9.65;;;;;;;;;;5075898;28;20051;-57
2023/02/14 00:07:53;;;;;;;15.48;9.68;;;;;;;;;;5075975;28;20029;-57
2023/02/14 00:10:18;;;;;;;13.80;9.55;;;;;;;;;;5074817;28;20039;-57
2023/02/14 00:12:43;;;;;;;15.82;9.32;;;;;;;;;;5076187;28;20444;-57
2023/02/14 00:15:21;;;;;;;15.00;9.27;;;;;;;;;;5075921;28;20027;-57
2023/02/14 00:17:47;;;;;;;13.25;9.07;;;;;;;;;;5076004;28;20032;-57
2023/02/14 00:20:13;;;;;;;13.07;9.57;;;;;;;;;;5074766;28;20367;-58
2023/02/14 00:22:38;;;;;;;12.93;8.98;;;;;;;;;;5074598;28;20020;-57
2023/02/14 00:25:04;;;;;;;10.80;8.70;;;;;;;;;;5074622;28;20039;-57
2023/02/14 00:27:29;;;;;;;12.07;8.80;;;;;;;;;;5075823;28;20052;-57
2023/02/14 00:29:57;;;;;;;15.45;9.68;;;;;;;;;;5074573;28;20032;-57
2023/02/14 00:32:22;;;;;;;12.18;9.02;;;;;;;;;;5057799;28;20024;-57
2023/02/14 00:34:47;;;;;;;14.55;9.75;;;;;;;;;;5075696;28;20035;-57
2023/02/14 00:37:13;;;;;;;12.73;9.80;;;;;;;;;;5074338;28;20039;-57
2023/02/14 00:39:38;;;;;;;13.90;9.60;;;;;;;;;;5075589;28;20025;-57
2023/02/14 00:42:04;;;;;;;13.40;9.48;;;;;;;;;;5074008;28;20059;-57
2023/02/14 00:44:31;;;;;;;14.30;9.07;;;;;;;;;;5075624;28;20503;-57
2023/02/14 00:46:56;;;;;;;13.18;8.80;;;;;;;;;;5075564;28;20033;-58
2023/02/14 00:49:22;;;;;;;11.57;8.73;;;;;;;;;;5075531;28;20039;-58
2023/02/14 00:51:47;;;;;;;9.98;8.10;;;;;;;;;;5073746;28;20036;-58
2023/02/14 00:54:12;;;;;;;12.13;8.80;;;;;;;;;;5074226;28;20521;-57
2023/02/14 00:56:38;;;;;;;11.32;8.43;;;;;;;;;;5075509;28;20021;-57
2023/02/14 00:59:03;;;;;;;11.23;8.43;;;;;;;;;;5073994;28;20353;-57
2023/02/14 01:01:28;;;;;;;11.52;7.80;;;;;;;;;;5075411;28;20067;-57
2023/02/14 01:03:54;;;;;;;11.52;7.93;;;;;;;;;;5075093;28;20041;-57
2023/02/14 01:06:20;;;;;;;10.55;8.07;;;;;;;;;;5075131;28;20032;-57
2023/02/14 01:08:50;;;;;;;12.23;8.63;;;;;;;;;;5073939;28;20383;-57
2023/02/14 01:11:16;;;;;;;9.82;8.50;;;;;;;;;;5074901;28;20071;-57
2023/02/14 01:13:42;;;;;;;12.13;8.82;;;;;;;;;;5073692;28;20521;-57
2023/02/14 01:16:09;;;;;;;10.77;9.25;;;;;;;;;;5073041;28;20032;-57
2023/02/14 01:18:35;;;;;;;11.63;8.77;;;;;;;;;;5074664;28;20047;-57
2023/02/14 01:21:15;;;;;;;12.60;8.80;;;;;;;;;;5074829;28;20480;-57
2023/02/14 01:23:41;;;;;;;11.85;9.05;;;;;;;;;;5074489;28;20024;-57
2023/02/14 01:26:06;;;;;;;11.65;8.68;;;;;;;;;;5074564;28;20024;-58
2023/02/14 01:28:32;;;;;;;12.35;8.95;;;;;;;;;;5074740;28;20506;-58
2023/02/14 01:31:03;;;;;;;13.48;8.63;;;;;;;;;;5074509;28;20031;-58
2023/02/14 01:33:31;;;;;;;12.45;8.98;;;;;;;;;;5074609;28;20029;-57
2023/02/14 01:35:57;;;;;;;11.25;8.77;;;;;;;;;;5073316;28;20401;-57
2023/02/14 01:38:22;;;;;;;10.35;8.52;;;;;;;;;;5073043;28;20438;-57
2023/02/14 01:40:48;;;;;;;10.95;8.60;;;;;;;;;;5073103;28;20064;-57
2023/02/14 01:43:14;;;;;;;12.45;8.65;;;;;;;;;;5074528;28;20382;-57
2023/02/14 01:45:39;;;;;;;14.32;9.02;;;;;;;;;;5074505;28;20025;-58
2023/02/14 01:48:05;;;;;;;12.15;9.00;;;;;;;;;;5074725;28;20090;-57
2023/02/14 01:50:33;;;;;;;13.13;9.23;;;;;;;;;;5073128;28;20032;-57
2023/02/14 01:53:03;;;;;;;12.68;9.23;;;;;;;;;;5073128;28;20039;-57
2023/02/14 01:55:31;;;;;;;11.23;8.70;;;;;;;;;;5074166;28;20074;-57
2023/02/14 01:58:00;;;;;;;11.98;8.32;;;;;;;;;;5074640;28;20058;-57
2023/02/14 02:03:09;;;;;;;9.98;8.25;;;;;;;;;;5073604;28;20074;-57
2023/02/14 02:05:41;;;;;;;10.35;8.48;;;;;;;;;;5072940;28;20032;-58
2023/02/14 02:08:06;;;;;;;9.68;8.68;;;;;;;;;;5072944;28;20025;-57
2023/02/14 02:10:32;;;;;;;10.13;8.50;;;;;;;;;;5074013;28;20404;-58
2023/02/14 02:13:00;;;;;;;10.65;8.85;;;;;;;;;;5073892;28;20042;-58
2023/02/14 02:15:27;;;;;;;10.82;8.30;;;;;;;;;;5072504;28;20028;-57
2023/02/14 02:17:55;;;;;;;11.57;8.80;;;;;;;;;;5073863;28;20472;-58
2023/02/14 02:20:27;;;;;;;11.18;8.52;;;;;;;;;;5073946;28;20025;-57
2023/02/14 02:23:05;;;;;;;12.05;8.55;;;;;;;;;;5072767;28;20460;-58
2023/02/14 02:25:37;;;;;;;9.68;8.10;;;;;;;;;;5072681;28;20032;-55
2023/02/14 02:28:02;;;;;;;10.23;8.80;;;;;;;;;;5073779;28;20472;-56
2023/02/14 02:31:00;;;;;;;12.23;9.18;;;;;;;;;;5072399;28;20454;-55
2023/02/14 02:33:43;;;;;;;9.48;8.50;;;;;;;;;;5073475;28;20119;-55
2023/02/14 02:36:17;;;;;;;11.25;8.70;;;;;;;;;;5073813;28;20024;-56
2023/02/14 02:39:01;;;;;;;12.13;8.65;;;;;;;;;;5073554;28;20029;-56
2023/02/14 02:41:26;;;;;;;10.02;8.65;;;;;;;;;;5073444;28;20059;-56
2023/02/14 02:43:54;;;;;;;12.02;9.15;;;;;;;;;;5073749;28;20037;-56
2023/02/14 02:46:46;;;;;;;11.40;8.43;;;;;;;;;;5072704;28;20379;-55
2023/02/14 02:53:01;;;;;;;9.23;8.13;;;;;;;;;;5072386;28;20044;-55
2023/02/14 02:54:51;;;;;;;11.68;8.50;;;;;;;;;;5072415;28;20479;-55
2023/02/14 02:57:25;;;;;;;11.77;8.20;;;;;;;;;;5072397;28;20021;-55
2023/02/14 02:59:53;;;;;;;9.18;7.90;;;;;;;;;;5073820;28;20025;-56
2023/02/14 03:02:18;;;;;;;9.15;7.70;;;;;;;;;;5072292;28;20035;-56
2023/02/14 03:04:52;;;;;;;10.65;8.02;;;;;;;;;;5073485;28;20375;-56
2023/02/14 03:07:37;;;;;;;11.25;8.57;;;;;;;;;;5073361;28;20118;-55
2023/02/14 03:10:12;;;;;;;9.43;8.20;;;;;;;;;;5072170;28;20028;-56
2023/02/14 03:12:53;;;;;;;9.43;8.20;;;;;;;;;;5072156;28;20044;-56
2023/02/14 03:15:38;;;;;;;9.88;7.88;;;;;;;;;;5072100;28;20021;-56
2023/02/14 03:18:07;;;;;;;8.45;7.55;;;;;;;;;;5071741;28;20051;-56
2023/02/14 03:20:35;;;;;;;9.13;8.20;;;;;;;;;;5053781;28;20444;-56
2023/02/14 03:23:07;;;;;;;10.30;7.90;;;;;;;;;;5071800;28;20028;-55
2023/02/14 03:25:33;;;;;;;9.52;7.82;;;;;;;;;;5072368;28;20059;-56
2023/02/14 03:28:18;;;;;;;9.60;7.53;;;;;;;;;;5072832;28;20115;-55
2023/02/14 03:31:05;;;;;;;10.88;7.55;;;;;;;;;;5072973;28;20024;-55
2023/02/14 03:33:45;;;;;;;8.80;7.35;;;;;;;;;;5071657;28;20029;-55
2023/02/14 03:36:40;;;;;;;8.60;7.70;;;;;;;;;;5073120;28;20029;-55
2023/02/14 03:39:14;;;;;;;9.32;7.60;;;;;;;;;;5070391;28;20032;-55
2023/02/14 03:41:42;;;;;;;10.25;7.85;;;;;;;;;;5075391;28;20448;-55
2023/02/14 03:44:10;;;;;;;9.93;7.80;;;;;;;;;;5075577;28;20028;-55
2023/02/14 03:46:44;;;;;;;10.63;7.90;;;;;;;;;;5075520;28;20383;-55
2023/02/14 03:49:12;;;;;;;11.07;8.43;;;;;;;;;;5076741;28;20480;-56
2023/02/14 03:51:38;;;;;;;9.43;7.65;;;;;;;;;;5076565;28;20500;-55
2023/02/14 03:54:05;;;;;;;8.68;7.40;;;;;;;;;;5076666;28;20051;-56
2023/02/14 03:56:31;;;;;;;8.95;7.90;;;;;;;;;;5076538;28;20062;-55
2023/02/14 03:58:58;;;;;;;9.90;7.13;;;;;;;;;;5076487;28;20486;-55
2023/02/14 04:01:25;;;;;;;9.63;7.25;;;;;;;;;;5076335;28;20032;-55
2023/02/14 04:03:52;;;;;;;9.38;8.00;;;;;;;;;;5076547;28;20079;-55
2023/02/14 04:06:18;;;;;;;9.77;8.07;;;;;;;;;;5075249;28;20032;-55
2023/02/14 04:08:44;;;;;;;11.18;7.85;;;;;;;;;;5076444;28;20036;-55
2023/02/14 04:11:10;;;;;;;9.07;7.65;;;;;;;;;;5076024;28;20021;-55
2023/02/14 04:13:36;;;;;;;10.05;7.88;;;;;;;;;;5076128;28;20031;-55
2023/02/14 04:16:01;;;;;;;10.73;7.55;;;;;;;;;;5076409;28;20478;-55
2023/02/14 04:21:10;;;;;;;8.93;7.78;;;;;;;;;;5076297;28;20032;-56
2023/02/14 04:23:36;;;;;;;8.88;7.28;;;;;;;;;;5074956;28;20032;-56
2023/02/14 04:26:02;;;;;;;7.95;7.07;;;;;;;;;;5076161;28;20036;-56
2023/02/14 04:28:28;;;;;;;9.18;6.95;;;;;;;;;;5075657;28;20028;-56
2023/02/14 04:30:53;;;;;;;7.97;7.18;;;;;;;;;;5075614;28;20176;-58
2023/02/14 04:33:19;;;;;;;8.63;7.45;;;;;;;;;;5075945;28;20498;-57
2023/02/14 04:35:44;;;;;;;12.05;7.82;;;;;;;;;;5057809;28;20023;-58
2023/02/14 04:38:10;;;;;;;10.20;7.55;;;;;;;;;;5075833;28;20024;-57
2023/02/14 04:40:35;;;;;;;8.48;7.53;;;;;;;;;;5075120;28;20063;-58
2023/02/14 04:43:00;;;;;;;10.27;7.90;;;;;;;;;;5075371;28;20036;-58
2023/02/14 04:45:26;;;;;;;8.73;7.68;;;;;;;;;;5075716;28;20036;-58
2023/02/14 04:47:51;;;;;;;9.02;7.68;;;;;;;;;;5075079;28;20028;-59
2023/02/14 04:50:17;;;;;;;8.57;7.78;;;;;;;;;;5075347;28;20059;-58
2023/02/14 04:52:42;;;;;;;9.38;7.53;;;;;;;;;;5073944;28;20037;-58
2023/02/14 04:55:07;;;;;;;8.73;7.38;;;;;;;;;;5075503;28;20036;-59
2023/02/14 04:57:33;;;;;;;11.15;7.53;;;;;;;;;;5075709;28;20060;-59
2023/02/14 04:59:58;;;;;;;8.85;7.43;;;;;;;;;;5075452;28;20075;-58
2023/02/14 05:02:24;;;;;;;9.25;7.78;;;;;;;;;;5074849;28;20024;-57
2023/02/14 05:04:49;;;;;;;8.90;7.55;;;;;;;;;;5075268;28;20115;-57
2023/02/14 05:07:14;;;;;;;7.45;6.72;;;;;;;;;;5074956;28;20035;-58
2023/02/14 05:09:40;;;;;;;8.60;6.85;;;;;;;;;;5074874;28;20032;-58
2023/02/14 05:12:05;;;;;;;8.52;7.38;;;;;;;;;;5073409;28;20020;-58
2023/02/14 05:14:30;;;;;;;9.57;7.80;;;;;;;;;;5075001;28;20020;-58
2023/02/14 05:16:56;;;;;;;9.70;7.90;;;;;;;;;;5074813;28;20652;-58
2023/02/14 05:19:21;;;;;;;9.52;8.07;;;;;;;;;;5074463;28;20530;-62
2023/02/14 05:21:47;;;;;;;9.68;7.72;;;;;;;;;;5074486;28;20070;-61
2023/02/14 05:24:18;;;;;;;9.13;7.53;;;;;;;;;;5074975;28;20391;-62
2023/02/14 05:26:43;;;;;;;9.52;7.35;;;;;;;;;;5074839;28;20115;-61
2023/02/14 05:29:10;;;;;;;10.07;8.50;;;;;;;;;;5074827;28;20103;-62
2023/02/14 05:31:35;;;;;;;13.43;8.70;;;;;;;;;;5074575;28;20074;-62
2023/02/14 05:34:01;;;;;;;12.02;9.25;;;;;;;;;;5074808;28;20064;-62
2023/02/14 05:36:27;;;;;;;9.52;8.48;;;;;;;;;;5074367;28;20028;-57
2023/02/14 05:38:53;;;;;;;9.25;8.23;;;;;;;;;;5074134;28;20032;-57
2023/02/14 05:41:19;;;;;;;10.20;8.43;;;;;;;;;;5074278;28;20044;-57
2023/02/14 05:43:44;;;;;;;10.65;8.15;;;;;;;;;;5074395;28;20035;-58
2023/02/14 05:46:09;;;;;;;9.60;7.80;;;;;;;;;;5074563;28;20036;-62
2023/02/14 05:48:34;;;;;;;11.75;7.95;;;;;;;;;;5074174;28;20103;-62
2023/02/14 05:51:07;;;;;;;9.80;8.38;;;;;;;;;;5074178;28;20044;-62
2023/02/14 05:53:33;;;;;;;10.32;8.13;;;;;;;;;;5074160;28;20037;-62
2023/02/14 05:56:03;;;;;;;9.05;7.75;;;;;;;;;;5074437;28;20115;-61
2023/02/14 05:58:28;;;;;;;10.38;7.82;;;;;;;;;;5073942;28;20056;-61
2023/02/14 06:00:55;;;;;;;10.80;7.95;;;;;;;;;;5073302;28;20071;-61
2023/02/14 06:03:21;;;;;;;13.07;9.00;;;;;;;;;;5073556;28;20024;-61
2023/02/14 06:05:46;;;;;;;12.00;8.80;;;;;;;;;;5073614;28;20028;-61
2023/02/14 06:08:11;;;;;;;14.55;9.35;;;;;;;;;;5073741;28;20123;-62
2023/02/14 06:10:37;;;;;;;15.18;10.13;;;;;;;;;;5072709;28;20033;-62
2023/02/14 06:13:07;;;;;;;13.52;9.50;;;;;;;;;;5072533;28;20024;-61
2023/02/14 06:15:32;;;;;;;;;;;;;;;;;;5073888;28;20033;-61
2023/02/14 06:17:58;;;;;;;14.43;9.32;;;;;;;;;;5073259;28;19908;-61
2023/02/14 06:20:23;;;;;;;13.73;9.43;;;;;;;;;;5073579;28;20012;-61
2023/02/14 06:22:49;;;;;;;15.52;9.35;;;;;;;;;;5072912;28;20028;-62
2023/02/14 06:25:14;;;;;;;16.00;9.60;;;;;;;;;;5073325;28;20021;-61
2023/02/14 06:27:40;;;;;;;15.88;9.60;;;;;;;;;;5072590;28;20024;-61
2023/02/14 06:30:06;;;;;;;14.60;9.68;;;;;;;;;;5074137;28;20096;-61
2023/02/14 06:32:33;;;;;;;11.85;8.18;;;;;;;;;;5072932;28;20031;-62
2023/02/14 06:34:59;;;;;;;13.38;8.63;;;;;;;;;;5074032;28;20028;-61
2023/02/14 06:37:24;;;;;;;10.98;8.95;;;;;;;;;;5073813;28;20028;-56
2023/02/14 06:39:49;;;;;;;14.23;10.07;;;;;;;;;;5073765;28;20476;-56
2023/02/14 06:42:15;;;;;;;11.50;8.93;;;;;;;;;;5073138;28;20422;-56
2023/02/14 06:44:42;;;;;;;12.00;9.43;;;;;;;;;;5073429;28;20044;-56
2023/02/14 06:47:08;;;;;;;11.98;9.90;;;;;;;;;;5073594;28;20039;-56
2023/02/14 06:49:33;;;;;;;10.90;8.43;;;;;;;;;;5073146;28;20036;-56
2023/02/14 06:51:58;;;;;;;11.15;7.60;;;;;;;;;;5071668;28;20483;-56
2023/02/14 06:54:24;;;;;;;15.45;9.55;;;;;;;;;;5073101;28;20091;-56
2023/02/14 06:56:49;;;;;;;14.57;9.55;;;;;;;;;;5072196;28;20032;-56
2023/02/14 06:59:14;;;;;;;14.05;9.70;;;;;;;;;;5071232;28;20024;-56
2023/02/14 07:01:40;;;;;;;10.95;8.73;;;;;;;;;;5054628;28;20073;-56
2023/02/14 07:04:05;;;;;;;11.70;8.43;;;;;;;;;;5071389;28;20032;-57
2023/02/14 07:06:30;;;;;;;11.35;8.18;;;;;;;;;;5070429;28;20028;-56
2023/02/14 07:08:56;;;;;;;10.85;7.78;;;;;;;;;;5069574;28;20452;-54
2023/02/14 07:11:21;;;;;;;10.45;7.60;;;;;;;;;;5069642;28;20028;-54
2023/02/14 07:13:46;;;;;;;11.65;7.65;;;;;;;;;;5072755;28;20400;-54
2023/02/14 07:16:11;;;;;;;11.30;8.32;;;;;;;;;;5075295;28;20066;-54
2023/02/14 07:18:37;;;;;;;10.55;7.60;;;;;;;;;;5075972;28;20383;-59
2023/02/14 07:21:02;;;;;;;12.15;8.15;;;;;;;;;;5058913;28;20482;-54
2023/02/14 07:23:27;;;;;;;12.70;7.57;;;;;;;;;;5076811;28;20028;-55
2023/02/14 07:25:54;;;;;;;9.95;7.32;;;;;;;;;;5076765;28;20372;-56
2023/02/14 07:28:19;;;;;;;10.25;7.93;;;;;;;;;;5076726;28;20487;-57
2023/02/14 07:30:45;;;;;;;11.18;7.57;;;;;;;;;;5076543;28;20036;-56
2023/02/14 07:33:11;;;;;;;10.52;7.43;;;;;;;;;;5076574;28;20383;-56
2023/02/14 07:35:36;;;;;;;8.20;7.28;;;;;;;;;;5076528;28;20020;-57
2023/02/14 07:38:01;;;;;;;10.38;7.30;;;;;;;;;;5076531;28;20486;-56
2023/02/14 07:40:28;;;;;;;9.13;7.53;;;;;;;;;;5075052;28;20021;-57
2023/02/14 07:42:55;;;;;;;8.32;7.25;;;;;;;;;;5076499;28;20025;-56
2023/02/14 07:45:21;;;;;;;8.05;7.25;;;;;;;;;;5076412;28;20028;-57
2023/02/14 07:47:47;;;;;;;8.20;6.95;;;;;;;;;;5076318;28;20464;-56
2023/02/14 07:50:12;;;;;;;10.68;7.75;;;;;;;;;;5076367;28;20037;-56
2023/02/14 07:52:38;;;;;;;11.13;8.77;;;;;;;;;;5076169;28;20017;-57
2023/02/14 07:55:03;;;;;;;11.32;8.63;;;;;;;;;;5076352;28;20027;-56
2023/02/14 07:57:28;;;;;;;8.77;7.80;;;;;;;;;;5076271;28;20052;-56
2023/02/14 07:59:53;;;;;;;8.38;7.28;;;;;;;;;;5076088;28;20054;-56
2023/02/14 08:02:19;;;;;;;9.25;7.47;;;;;;;;;;5074908;28;20032;-57
2023/02/14 08:04:45;;;;;;;9.60;7.53;;;;;;;;;;5075979;28;20471;-56
2023/02/14 08:07:10;;;;;;;9.77;7.72;;;;;;;;;;5076012;28;20037;-61
2023/02/14 08:09:36;;;;;;;8.55;7.65;;;;;;;;;;5076205;28;20031;-61
2023/02/14 08:14:45;;;;;;;9.65;7.45;;;;;;;;;;5075844;28;20028;-61
2023/02/14 08:17:12;;;;;;;10.63;8.15;;;;;;;;;;5074657;28;20391;-62
2023/02/14 08:19:37;;;;;;;10.60;7.40;;;;;;;;;;5075807;28;20067;-62
2023/02/14 08:22:03;;;;;;;12.77;9.57;;;;;;;;;;5075691;28;20426;-57
2023/02/14 08:24:28;;;;;;;14.15;10.73;;;;;;;;;;5074082;28;20067;-57
2023/02/14 08:26:53;;;;;;;7.90;6.97;;;;;;;;;;5075653;28;20036;-61
2023/02/14 08:29:19;;;;;;;8.13;6.82;;;;;;;;;;5075664;28;20478;-62
2023/02/14 08:31:46;;;;;;;7.82;7.05;;;;;;;;;;5075458;28;20043;-62
2023/02/14 08:34:11;;;;;;;9.27;6.80;;;;;;;;;;5074234;28;20023;-61
2023/02/14 08:36:37;;;;;;;8.27;7.40;;;;;;;;;;5108059;28;20119;-61
2023/02/14 08:39:03;;;;;;;7.78;7.00;;;;;;;;;;5075532;28;20021;-61
2023/02/14 08:41:28;;;;;;;10.70;8.10;;;;;;;;;;5075251;28;20583;-62
2023/02/14 08:43:53;;;;;;;8.10;7.30;;;;;;;;;;5075279;28;20068;-61
2023/02/14 08:46:19;;;;;;;8.52;7.40;;;;;;;;;;5075283;28;20020;-61
2023/02/14 08:48:45;;;;;;;7.80;6.90;;;;;;;;;;5075203;28;20056;-62
2023/02/14 08:51:12;;;;;;;7.68;6.55;;;;;;;;;;5075115;28;20050;-61
2023/02/14 08:53:38;;;;;;;8.65;7.03;;;;;;;;;;5075073;28;20029;-56
2023/02/14 08:56:04;;;;;;;7.65;6.88;;;;;;;;;;5075067;28;20025;-57
2023/02/14 08:58:30;;;;;;;7.80;7.00;;;;;;;;;;5075161;28;20047;-61
2023/02/14 09:00:55;;;;;;;9.10;7.97;;;;;;;;;;5075165;28;20028;-61
2023/02/14 09:03:21;;;;;;;9.27;7.47;;;;;;;;;;5074921;28;20040;-61
2023/02/14 09:05:46;;;;;;;8.27;7.18;;;;;;;;;;5074822;28;20566;-61
2023/02/14 09:08:11;;;;;;;10.52;8.23;;;;;;;;;;5074860;28;20024;-61
2023/02/14 09:10:37;;;;;;;9.00;7.18;;;;;;;;;;5075023;28;20543;-61
2023/02/14 09:13:02;;;;;;;10.55;8.00;;;;;;;;;;5074713;28;20149;-61
2023/02/14 09:15:28;;;;;;;9.40;7.30;;;;;;;;;;5074677;28;20019;-61
2023/02/14 09:17:53;;;;;;;7.53;6.80;;;;;;;;;;5073415;28;20349;-62
2023/02/14 09:20:18;;;;;;;7.50;6.65;;;;;;;;;;5074623;28;20028;-61
2023/02/14 09:22:45;;;;;;;9.55;7.80;;;;;;;;;;5074755;28;20459;-62
2023/02/14 09:25:10;;;;;;;10.27;7.82;;;;;;;;;;5074536;28;20086;-56
2023/02/14 09:27:36;;;;;;;9.38;7.63;;;;;;;;;;5074406;28;20036;-56
2023/02/14 09:30:01;;;;;;;9.30;7.72;;;;;;;;;;5074419;28;20029;-56
2023/02/14 09:32:27;;;;;;;8.25;7.07;;;;;;;;;;5074273;28;20040;-56
2023/02/14 09:34:53;;;;;;;8.27;7.30;;;;;;;;;;5074270;28;20032;-56
2023/02/14 09:40:03;;;;;;;8.40;6.65;;;;;;;;;;5073205;28;20480;-56
2023/02/14 09:42:31;;;;;;;8.30;6.85;;;;;;;;;;5072853;28;20052;-56
2023/02/14 09:45:00;;;;;;;7.47;6.40;;;;;;;;;;5074163;28;20032;-61
2023/02/14 09:47:32;;;;;;;6.38;5.78;;;;;;;;;;5074057;28;20021;-61
2023/02/14 09:49:58;;;;;;;7.38;6.68;;;;;;;;;;5074008;28;20036;-61
2023/02/14 09:52:26;;;;;;;7.53;6.82;;;;;;;;;;5073905;28;20032;-61
2023/02/14 09:54:54;;;;;;;11.13;7.85;;;;;;;;;;5072665;28;20460;-56
2023/02/14 09:57:35;;;;;;;8.63;7.13;;;;;;;;;;5073914;28;20500;-56
2023/02/14 10:00:22;;;;;;;7.78;6.85;;;;;;;;;;5074019;28;20021;-56
2023/02/14 10:02:55;;;;;;;8.40;6.57;;;;;;;;;;5074301;28;20392;-56
2023/02/14 10:05:29;;;;;;;6.80;6.20;;;;;;;;;;5073862;28;20384;-61
2023/02/14 10:07:54;;;;;;;6.82;5.65;;;;;;;;;;5073623;28;20162;-56
2023/02/14 10:10:36;;;;;;;6.18;5.20;;;;;;;;;;5073740;28;20060;-57
2023/02/14 10:13:06;;;;;;;5.75;4.80;;;;;;;;;;5073749;28;20044;-56
2023/02/14 10:15:37;;;;;;;7.13;6.43;;;;;;;;;;5073761;28;20044;-57
2023/02/14 10:18:16;;;;;;;6.60;6.00;;;;;;;;;;5073743;28;20483;-57
2023/02/14 10:20:48;;;;;;;6.53;6.03;;;;;;;;;;5055758;28;20031;-56
2023/02/14 10:23:13;;;;;;;6.35;5.75;;;;;;;;;;5073618;28;20032;-56
2023/02/14 10:25:43;;;;;;;6.55;5.97;;;;;;;;;;5073654;28;20104;-56
2023/02/14 10:28:12;;;;;;;6.78;6.05;;;;;;;;;;5072374;28;20086;-57
2023/02/14 10:30:38;;;;;;;6.95;6.28;;;;;;;;;;5073437;28;20070;-56
2023/02/14 10:33:03;;;;;;;6.65;5.72;;;;;;;;;;5073406;28;20491;-57
2023/02/14 10:35:31;;;;;;;6.65;5.15;;;;;;;;;;5073468;28;20017;-57
2023/02/14 10:38:16;;;;;;;6.70;6.00;;;;;;;;;;5073561;28;20017;-61
2023/02/14 10:40:51;;;;;;;5.65;5.15;;;;;;;;;;5073349;28;20141;-61
2023/02/14 10:43:39;;;;;;;6.15;5.55;;;;;;;;;;5072288;28;20031;-61
2023/02/14 10:46:13;;;;;;;9.13;5.80;;;;;;;;;;5073367;28;20392;-61
2023/02/14 10:48:50;;;;;;;6.88;6.00;;;;;;;;;;5077104;28;20033;-61
2023/02/14 10:51:19;;;;;;;5.47;4.78;;;;;;;;;;5077431;28;20053;-61
2023/02/14 10:53:44;;;;;;;7.25;6.25;;;;;;;;;;5076141;28;20043;-61
2023/02/14 10:56:21;;;;;;;8.60;6.25;;;;;;;;;;5077432;28;20041;-57
2023/02/14 10:58:48;;;;;;;8.02;6.03;;;;;;;;;;5077359;28;20121;-56
2023/02/14 11:01:16;;;;;;;7.70;6.25;;;;;;;;;;5077219;28;20162;-56
2023/02/14 11:03:50;;;;;;;8.95;6.70;;;;;;;;;;5077319;28;20044;-56
2023/02/14 11:06:15;;;;;;;6.72;6.13;;;;;;;;;;5077305;28;20024;-56
2023/02/14 11:08:41;;;;;;;6.55;5.93;;;;;;;;;;5077094;28;20383;-56
2023/02/14 11:11:06;;;;;;;8.13;6.53;;;;;;;;;;5076977;28;20032;-61
2023/02/14 11:13:35;;;;;;;9.82;6.82;;;;;;;;;;5077124;28;20024;-61
2023/02/14 11:16:02;;;;;;;8.55;6.00;;;;;;;;;;5077054;28;20025;-61
2023/02/14 11:18:31;;;;;;;7.53;5.75;;;;;;;;;;5076984;28;20028;-61
2023/02/14 11:21:10;;;;;;;8.48;5.57;;;;;;;;;;5076874;28;20401;-61
2023/02/14 11:23:40;;;;;;;6.60;5.93;;;;;;;;;;5076776;28;20036;-61
2023/02/14 11:26:25;;;;;;;9.27;6.28;;;;;;;;;;5075562;28;20058;-61
2023/02/14 11:28:58;;;;;;;6.43;5.78;;;;;;;;;;5075831;28;20028;-57
2023/02/14 11:31:35;;;;;;;7.18;6.47;;;;;;;;;;5075236;28;20036;-56
2023/02/14 11:34:02;;;;;;;8.20;6.63;;;;;;;;;;5076577;28;20442;-56
2023/02/14 11:36:28;;;;;;;7.97;6.60;;;;;;;;;;5075455;28;20126;-56
2023/02/14 11:38:55;;;;;;;7.38;6.15;;;;;;;;;;5076520;28;20025;-56
2023/02/14 11:41:20;;;;;;;6.65;6.00;;;;;;;;;;5076327;28;20431;-56
2023/02/14 11:43:48;;;;;;;6.80;5.32;;;;;;;;;;5076437;28;20480;-56
2023/02/14 11:46:19;;;;;;;5.78;5.03;;;;;;;;;;5076519;28;20459;-56
2023/02/14 11:49:01;;;;;;;7.28;6.00;;;;;;;;;;5076367;28;20066;-56
2023/02/14 11:51:34;;;;;;;6.78;5.28;;;;;;;;;;5076352;28;20033;-56
2023/02/14 11:54:03;;;;;;;6.20;5.35;;;;;;;;;;5076340;28;20025;-57
2023/02/14 11:56:49;;;;;;;6.07;5.57;;;;;;;;;;5076239;28;20020;-56
2023/02/14 11:59:26;;;;;;;6.93;5.97;;;;;;;;;;5075619;28;20032;-61
2023/02/14 12:01:52;;;;;;;8.02;6.28;;;;;;;;;;5076399;28;20394;-56
2023/02/14 12:04:22;;;;;;;8.63;5.68;;;;;;;;;;5074896;28;20115;-57
2023/02/14 12:06:48;;;;;;;8.15;5.93;;;;;;;;;;5076081;28;20036;-56
2023/02/14 12:09:22;;;;;;;7.55;5.88;;;;;;;;;;5076053;28;20124;-56
2023/02/14 12:11:57;;;;;;;6.05;4.80;;;;;;;;;;5075909;28;20422;-56
2023/02/14 12:14:24;;;;;;;11.43;7.80;;;;;;;;;;5075891;28;20441;-56
2023/02/14 12:17:08;;;;;;;8.73;6.28;;;;;;;;;;5075837;28;20111;-56
2023/02/14 12:20:12;;;;;;;10.93;7.32;;;;;;;;;;5075800;28;20064;-56
2023/02/14 12:22:44;;;;;;;14.20;9.60;;;;;;;;;;5060217;28;20391;-56
2023/02/14 12:25:13;;;;;;;8.18;6.68;;;;;;;;;;5094045;28;20050;-56
2023/02/14 12:27:49;;;;;;;11.75;8.25;;;;;;;;;;5084115;28;20040;-56
2023/02/14 12:30:16;;;;;;;11.45;8.00;;;;;;;;;;5075667;28;20059;-56
2023/02/14 12:32:45;;;;;;;8.32;6.05;;;;;;;;;;5075526;28;20037;-56
2023/02/14 12:35:15;;;;;;;11.30;7.68;;;;;;;;;;5074358;28;20020;-56
2023/02/14 12:37:56;;;;;;;19.17;12.52;;;;;;;;;;5075483;28;20029;-56
2023/02/14 12:40:29;;;;;;;12.45;7.82;;;;;;;;;;5075249;28;20032;-61
2023/02/14 12:43:13;;;;;;;12.77;8.90;;;;;;;;;;5074129;28;20498;-61
2023/02/14 12:45:42;;;;;;;10.40;8.73;;;;;;;;;;5075307;28;20032;-61
2023/02/14 12:48:25;;;;;;;9.35;7.35;;;;;;;;;;5075314;28;20082;-59
2023/02/14 12:51:06;;;;;;;6.07;5.47;;;;;;;;;;5074003;28;20036;-54
2023/02/14 12:53:47;;;;;;;6.10;5.50;;;;;;;;;;5075260;28;20506;-54
2023/02/14 12:56:21;;;;;;;6.90;5.93;;;;;;;;;;5075205;28;20506;-54
2023/02/14 12:58:55;;;;;;;7.10;5.32;;;;;;;;;;5075149;28;20070;-58
2023/02/14 13:01:39;;;;;;;8.38;5.88;;;;;;;;;;5075132;28;20041;-59
2023/02/14 13:04:20;;;;;;;8.65;7.30;;;;;;;;;;5074833;28;20108;-59
2023/02/14 13:06:53;;;;;;;11.48;8.25;;;;;;;;;;5074901;28;20028;-59
2023/02/14 13:09:41;;;;;;;7.82;6.07;;;;;;;;;;5074797;28;20460;-59
2023/02/14 13:12:06;;;;;;;5.95;5.45;;;;;;;;;;5072449;28;20035;-59
2023/02/14 13:14:38;;;;;;;5.97;5.40;;;;;;;;;;5074771;28;20408;-61
2023/02/14 13:17:06;;;;;;;5.80;5.18;;;;;;;;;;5074810;28;20035;-61
2023/02/14 13:19:35;;;;;;;6.40;5.68;;;;;;;;;;5073545;28;20039;-61
2023/02/14 13:22:02;;;;;;;5.28;4.45;;;;;;;;;;5074743;28;20171;-61
2023/02/14 13:24:30;;;;;;;7.68;6.63;;;;;;;;;;5074640;28;20040;-61
2023/02/14 13:26:57;;;;;;;7.25;5.88;;;;;;;;;;5074535;28;20111;-61
2023/02/14 13:29:24;;;;;;;6.60;6.03;;;;;;;;;;5074447;28;20036;-61
2023/02/14 13:31:53;;;;;;;7.32;5.90;;;;;;;;;;5074294;28;20109;-57
2023/02/14 13:34:29;;;;;;;17.83;12.65;;;;;;;;;;5074301;28;20025;-57
2023/02/14 13:36:55;;;;;;;9.70;7.57;;;;;;;;;;5074288;28;20032;-57
2023/02/14 13:39:31;;;;;;;8.00;6.80;;;;;;;;;;5073066;28;20021;-57
2023/02/14 13:41:56;;;;;;;8.25;6.45;;;;;;;;;;5074062;28;20048;-57
2023/02/14 13:44:40;;;;;;;10.25;7.00;;;;;;;;;;5074407;28;20099;-56
2023/02/14 13:47:07;;;;;;;7.60;6.70;;;;;;;;;;5074091;28;20028;-57
2023/02/14 13:49:34;;;;;;;7.97;7.05;;;;;;;;;;5074093;28;20099;-57
2023/02/14 13:52:02;;;;;;;9.35;6.72;;;;;;;;;;5073941;28;20530;-57
2023/02/14 13:54:29;;;;;;;7.95;6.95;;;;;;;;;;5073984;28;20037;-56
2023/02/14 13:56:56;;;;;;;10.25;7.03;;;;;;;;;;5074048;28;20116;-56
2023/02/14 13:59:29;;;;;;;7.63;6.85;;;;;;;;;;5073998;28;20119;-61
2023/02/14 14:02:14;;;;;;;7.13;6.43;;;;;;;;;;5073929;28;20043;-61
2023/02/14 14:04:40;;;;;;;8.05;6.22;;;;;;;;;;5073714;28;20103;-62
2023/02/14 14:07:11;;;;;;;9.02;6.63;;;;;;;;;;5073981;28;20067;-56
2023/02/14 14:09:42;;;;;;;7.55;6.03;;;;;;;;;;5072901;28;20043;-56
2023/02/14 14:12:23;;;;;;;8.65;6.93;;;;;;;;;;5073951;28;20086;-56
2023/02/14 14:14:48;;;;;;;;;;;;;;;;;;5074215;28;20423;-56
2023/02/14 14:17:18;;;;;;;6.00;5.37;;;;;;;;;;5073695;28;19930;-56
2023/02/14 14:19:44;;;;;;;6.35;5.65;;;;;;;;;;5073634;28;20070;-56
2023/02/14 14:22:13;;;;;;;8.35;6.03;;;;;;;;;;5073251;28;20020;-56
2023/02/14 14:24:58;;;;;;;7.55;6.13;;;;;;;;;;5073587;28;20538;-56
2023/02/14 14:27:23;;;;;;;6.80;6.07;;;;;;;;;;5073572;28;20025;-56
2023/02/14 14:29:53;;;;;;;6.97;6.00;;;;;;;;;;5073580;28;20031;-56
2023/02/14 14:32:23;;;;;;;6.15;5.63;;;;;;;;;;5073013;28;20063;-56
2023/02/14 14:34:52;;;;;;;6.85;5.95;;;;;;;;;;5072391;28;20059;-56
2023/02/14 14:37:19;;;;;;;7.47;5.32;;;;;;;;;;5073524;28;20020;-56
2023/02/14 14:39:49;;;;;;;6.25;5.45;;;;;;;;;;5069797;28;20021;-56
2023/02/14 14:42:15;;;;;;;6.83;5.63;;;;;;;;;;5072581;28;20048;-56
2023/02/14 14:44:46;;;;;;;5.88;5.32;;;;;;;;;;5071298;28;20286;-56
2023/02/14 14:47:15;;;;;;;7.85;6.25;;;;;;;;;;5072843;28;20031;-56
2023/02/14 14:49:42;;;;;;;9.15;6.60;;;;;;;;;;5072705;28;20077;-57
2023/02/14 14:52:20;;;;;;;8.18;5.75;;;;;;;;;;5072560;28;20387;-56
2023/02/14 14:54:45;;;;;;;8.75;6.18;;;;;;;;;;5070762;28;20056;-56
2023/02/14 14:57:15;;;;;;;6.90;5.32;;;;;;;;;;5070941;28;20071;-56
2023/02/14 14:59:40;;;;;;;7.65;6.28;;;;;;;;;;5072825;28;20032;-56
2023/02/14 15:02:25;;;;;;;6.38;5.80;;;;;;;;;;5072945;28;20078;-60